createdAt,value
2018-07-31T00:01:26.131Z,32.4
2018-07-31T00:11:25.369Z,32.5
2018-07-31T00:21:24.616Z,32.5
2018-07-31T00:31:23.857Z,32.5
2018-07-31T00:41:23.100Z,32.5
2018-07-31T00:51:22.350Z,32.5
2018-07-31T01:01:21.592Z,32.5
2018-07-31T01:11:20.840Z,32.5
2018-07-31T01:21:20.073Z,32.5
2018-07-31T01:31:19.321Z,32.5
2018-07-31T01:41:18.562Z,32.5
2018-07-31T01:51:17.803Z,32.5
2018-07-31T02:01:17.046Z,32.5
2018-07-31T02:11:16.289Z,32.4
2018-07-31T02:21:15.532Z,32.2
2018-07-31T02:31:14.776Z,32.2
2018-07-31T02:41:14.019Z,31.9
2018-07-31T02:51:13.267Z,32
2018-07-31T03:01:12.508Z,32
2018-07-31T03:11:11.754Z,32
2018-07-31T03:21:10.995Z,30.4
2018-07-31T03:31:10.239Z,29.5
2018-07-31T03:41:09.483Z,29.6
2018-07-31T03:51:08.724Z,29.1
2018-07-31T04:01:07.970Z,29.2
2018-07-31T04:11:07.219Z,28.7
2018-07-31T04:21:06.458Z,28.5
2018-07-31T04:31:05.702Z,28.4
2018-07-31T04:41:04.956Z,27.6
2018-07-31T04:51:04.188Z,27.8
2018-07-31T05:01:03.433Z,27.8
2018-07-31T05:11:02.680Z,27.9
2018-07-31T05:21:01.920Z,27.9
2018-07-31T05:31:01.152Z,27.9
2018-07-31T05:41:00.406Z,28
2018-07-31T05:50:59.649Z,28.1
2018-07-31T06:00:58.893Z,28.1
2018-07-31T06:10:58.141Z,28.3
2018-07-31T06:20:57.385Z,28.4
2018-07-31T06:30:56.620Z,28.7
2018-07-31T06:40:55.871Z,29.1
2018-07-31T06:50:55.110Z,29.4
2018-07-31T07:00:54.358Z,29.9
2018-07-31T07:10:53.595Z,30.3
2018-07-31T07:20:52.843Z,30.6
2018-07-31T07:30:52.087Z,31
2018-07-31T07:40:51.325Z,31.4
2018-07-31T07:50:50.567Z,31.7
2018-07-31T08:00:49.810Z,32.1
2018-07-31T08:10:49.055Z,32.4
2018-07-31T08:20:48.299Z,32.7
2018-07-31T08:30:47.542Z,33.1
